Terminal Aerodrome Forecast
Issued by NWS Upton, NY

Home | Current Version | Previous Version | Text Only | Print | Product List | Glossary On
Versions: 1 2 3 4 5 6 7 8 9 10 11 12 13 14 15 16 17 18 19 20 21 22 23 24 25 26 27 28 29 30 31 32 33 34 35 36 37 38
000
FTUS41 KOKX 260807 AAA
TAFISP
TAF AMD
KISP 260807Z 2608/2706 00000KT 1/2SM FG VV002
     FM261100 28010KT P6SM SCT250
     FM261300 28013G20KT P6SM SCT250
     FM261900 25014G21KT P6SM FEW250
     FM262200 24010KT P6SM SKC
     FM270400 VRB03KT P6SM SCT250=

USA.gov is the U.S. government's official web portal to all federal, state and local government web resources and services.